Time;durP1;ratioP1;P1;durP2;ratioP2;P2;SDS_P1;SDS_P2;PMS_P1;PMS_P2;Temp;Humidity;BMP_temperature;BMP_pressure;BME280_temperature;BME280_humidity;BME280_pressure;Samples;Min_cycle;Max_cycle;Signal;HPM_P1;HPM_P2
2023/03/12 00:00:48;;;;;;;1.15;1.05;;;;;;;9.60;64.67;98736.16;5079080;28;20028;-68
2023/03/12 00:03:13;;;;;;;1.38;1.15;;;;;;;9.54;66.43;98731.59;5078504;28;20039;-68
2023/03/12 00:05:40;;;;;;;3.08;1.23;;;;;;;9.50;67.17;98731.13;5078712;28;20033;-63
2023/03/12 00:08:06;;;;;;;3.03;1.02;;;;;;;9.42;64.31;98719.81;5079320;28;20032;-64
2023/03/12 00:10:32;;;;;;;2.03;1.00;;;;;;;9.34;61.11;98704.84;5077818;28;20040;-64
2023/03/12 00:12:57;;;;;;;1.90;1.00;;;;;;;9.14;59.75;98735.41;5078310;28;20081;-63
2023/03/12 00:15:24;;;;;;;2.17;1.35;;;;;;;9.06;60.48;98719.63;5077050;28;20052;-68
2023/03/12 00:17:50;;;;;;;1.23;1.00;;;;;;;9.13;60.50;98725.81;5077686;28;20044;-70
2023/03/12 00:20:16;;;;;;;2.72;0.98;;;;;;;8.97;60.43;98724.13;5077559;28;20218;-68
2023/03/12 00:22:42;;;;;;;1.58;1.13;;;;;;;8.84;60.64;98729.19;5078069;28;20451;-70
2023/03/12 00:25:12;;;;;;;2.42;1.10;;;;;;;8.96;60.27;98735.69;5077900;28;20051;-63
2023/03/12 00:27:38;;;;;;;4.05;1.20;;;;;;;8.99;61.58;98737.97;5077784;28;20322;-63
2023/03/12 00:30:05;;;;;;;1.00;0.90;;;;;;;9.06;61.87;98746.03;5078843;28;20048;-63
2023/03/12 00:32:34;;;;;;;1.92;1.10;;;;;;;9.01;62.79;98741.28;5077557;28;20037;-68
2023/03/12 00:34:59;;;;;;;1.85;1.10;;;;;;;8.92;63.19;98740.50;5078134;28;20044;-68
2023/03/12 00:37:25;;;;;;;5.35;0.95;;;;;;;8.87;63.39;98740.22;5078677;28;20309;-69
2023/03/12 00:39:51;;;;;;;1.13;1.02;;;;;;;8.87;62.82;98744.66;5078348;28;20086;-63
2023/03/12 00:42:17;;;;;;;1.85;1.05;;;;;;;8.67;61.71;98735.56;5077495;28;20105;-71
2023/03/12 00:44:43;;;;;;;1.67;1.08;;;;;;;8.68;59.61;98721.38;5077622;28;20068;-66
2023/03/12 00:47:09;;;;;;;3.17;1.73;;;;;;;8.62;60.07;98741.38;5077798;28;20162;-70
2023/03/12 00:49:35;;;;;;;2.35;1.00;;;;;;;8.66;61.37;98744.47;5078047;28;20036;-70
2023/03/12 00:52:01;;;;;;;2.92;1.55;;;;;;;8.56;60.66;98742.88;5078182;28;20028;-70
2023/03/12 00:54:27;;;;;;;1.60;1.17;;;;;;;8.50;60.52;98740.94;5078443;28;20068;-62
2023/03/12 00:56:52;;;;;;;1.33;1.23;;;;;;;8.55;60.82;98748.34;5078506;28;20047;-65
2023/03/12 00:59:18;;;;;;;3.85;1.45;;;;;;;8.56;61.47;98752.63;5078231;28;20089;-66
2023/03/12 01:01:43;;;;;;;1.60;1.40;;;;;;;8.59;62.04;98752.28;5078414;28;20028;-64
2023/03/12 01:04:09;;;;;;;2.20;1.30;;;;;;;8.66;63.13;98765.59;5077716;28;20423;-65
2023/03/12 01:06:34;;;;;;;3.25;1.58;;;;;;;8.69;63.66;98747.59;5077517;28;20032;-66
2023/03/12 01:09:05;;;;;;;3.22;1.17;;;;;;;8.56;63.09;98747.34;5077101;28;20056;-65
2023/03/12 01:11:31;;;;;;;2.72;1.58;;;;;;;8.48;62.74;98756.13;5077576;28;20029;-65
2023/03/12 01:13:58;;;;;;;2.15;1.40;;;;;;;8.40;62.75;98752.69;5077348;28;20044;-65
2023/03/12 01:16:27;;;;;;;2.70;1.08;;;;;;;8.38;62.96;98759.97;5077876;28;20036;-70
2023/03/12 01:18:53;;;;;;;3.65;1.23;;;;;;;8.40;62.53;98763.25;5076145;28;20107;-66
2023/03/12 01:21:19;;;;;;;3.60;1.27;;;;;;;8.34;61.21;98774.47;5060970;28;20040;-70
2023/03/12 01:23:44;;;;;;;2.45;1.20;;;;;;;8.27;60.82;98766.38;5060627;28;20499;-70
2023/03/12 01:26:10;;;;;;;1.85;1.50;;;;;;;8.31;61.03;98762.41;5059895;28;20037;-71
2023/03/12 01:28:35;;;;;;;4.93;1.80;;;;;;;8.35;61.18;98778.78;5062801;28;20048;-65
2023/03/12 01:31:08;;;;;;;2.92;1.48;;;;;;;8.29;60.01;98782.84;5060911;28;20083;-69
2023/03/12 01:33:34;;;;;;;2.67;1.67;;;;;;;8.28;60.43;98781.22;5059400;28;20099;-66
2023/03/12 01:36:00;;;;;;;3.05;1.38;;;;;;;8.26;60.55;98785.81;5061607;28;20048;-70
2023/03/12 01:38:25;;;;;;;2.83;1.50;;;;;;;8.16;60.50;98798.38;5068396;28;20040;-70
2023/03/12 01:40:51;;;;;;;3.28;2.05;;;;;;;8.13;60.51;98802.19;5080739;28;20040;-65
2023/03/12 01:43:22;;;;;;;3.40;1.58;;;;;;;8.07;60.66;98804.69;5071301;28;20060;-70
2023/03/12 01:46:20;;;;;;;3.30;2.40;;;;;;;8.00;60.77;98813.25;5061643;28;20060;-65
2023/03/12 01:48:54;;;;;;;2.70;1.30;;;;;;;7.95;60.61;98817.41;5061920;28;20066;-70
2023/03/12 01:51:21;;;;;;;;;;;;;;;7.90;59.98;98819.72;5063646;28;20099;-65
2023/03/12 01:53:49;;;;;;;3.63;1.92;;;;;;;7.87;60.00;98828.78;5061665;28;19931;-65
2023/03/12 01:56:17;;;;;;;3.58;1.67;;;;;;;7.92;58.89;98831.72;5061654;28;20029;-65
2023/03/12 01:58:51;;;;;;;3.67;1.50;;;;;;;7.84;58.16;98830.91;5061712;28;20049;-70
2023/03/12 02:01:19;;;;;;;3.28;2.05;;;;;;;7.79;58.63;98834.06;5061757;28;20048;-70
2023/03/12 02:03:47;;;;;;;3.53;1.90;;;;;;;7.76;58.34;98830.94;5061988;28;20036;-66
2023/03/12 02:06:14;;;;;;;2.92;1.70;;;;;;;7.74;59.26;98835.53;5062576;28;20033;-70
2023/03/12 02:08:46;;;;;;;2.38;2.10;;;;;;;7.79;59.13;98854.31;5061825;28;20095;-70
2023/03/12 02:11:12;;;;;;;4.43;2.22;;;;;;;7.72;59.28;98853.34;5061501;28;20033;-66
2023/03/12 02:13:37;;;;;;;4.15;1.90;;;;;;;7.74;58.93;98861.91;5060786;28;20100;-66
2023/03/12 02:16:03;;;;;;;4.70;1.80;;;;;;;7.74;58.96;98860.09;5061324;28;20368;-66
2023/03/12 02:18:29;;;;;;;2.80;1.80;;;;;;;7.66;57.76;98874.09;5059217;28;20416;-70
2023/03/12 02:21:09;;;;;;;5.47;3.20;;;;;;;7.68;57.36;98866.84;5059001;28;20303;-65
2023/03/12 02:23:50;;;;;;;3.67;2.50;;;;;;;7.59;57.89;98870.47;5061646;28;20044;-65
2023/03/12 02:26:18;;;;;;;2.47;2.25;;;;;;;7.58;57.66;98878.53;5061406;28;20028;-65
2023/03/12 02:28:44;;;;;;;3.55;2.20;;;;;;;7.50;56.80;98884.63;5060655;28;20330;-70
2023/03/12 02:31:18;;;;;;;5.22;2.47;;;;;;;7.52;57.57;98897.63;5061381;28;20266;-70
2023/03/12 02:33:44;;;;;;;5.00;2.38;;;;;;;7.49;57.58;98897.94;5059393;28;20373;-70
2023/03/12 02:36:10;;;;;;;2.67;2.22;;;;;;;7.45;57.93;98899.25;5058491;28;20036;-65
2023/03/12 02:38:43;;;;;;;3.22;2.45;;;;;;;7.47;57.80;98913.91;5059900;28;20052;-70
2023/03/12 02:41:26;;;;;;;4.30;3.00;;;;;;;7.45;57.53;98913.25;5062152;28;20320;-70
2023/03/12 02:43:58;;;;;;;4.83;2.97;;;;;;;7.44;57.32;98922.13;5064971;28;20033;-65
2023/03/12 02:46:24;;;;;;;3.17;2.80;;;;;;;7.38;57.00;98927.22;5060985;28;20029;-65
2023/03/12 02:48:50;;;;;;;3.10;2.65;;;;;;;7.28;57.64;98941.38;5061456;28;20438;-70
2023/03/12 02:51:15;;;;;;;5.47;3.22;;;;;;;7.29;57.11;98942.19;5061411;28;20200;-70
2023/03/12 02:53:41;;;;;;;5.18;3.38;;;;;;;7.33;56.64;98951.41;5061896;28;20036;-65
2023/03/12 02:56:07;;;;;;;5.10;3.28;;;;;;;7.31;56.54;98951.56;5058949;28;20064;-70
2023/03/12 02:58:32;;;;;;;9.18;3.35;;;;;;;7.25;57.08;98954.81;5058738;28;20562;-65
2023/03/12 03:00:58;;;;;;;5.57;3.08;;;;;;;7.20;57.15;98957.09;5058828;28;20199;-70
2023/03/12 03:03:23;;;;;;;4.35;2.72;;;;;;;7.25;56.52;98959.25;5058272;28;20269;-70
2023/03/12 03:05:50;;;;;;;3.30;3.00;;;;;;;7.32;56.36;98970.84;5059420;28;20040;-65
2023/03/12 03:08:16;;;;;;;4.63;2.85;;;;;;;7.24;56.26;98971.59;5060116;28;20036;-70
2023/03/12 03:10:41;;;;;;;6.72;3.40;;;;;;;7.28;56.26;98972.09;5060790;28;20375;-70
2023/03/12 03:13:08;;;;;;;3.47;3.03;;;;;;;7.28;56.24;98978.22;5060758;28;20035;-65
2023/03/12 03:15:33;;;;;;;4.95;3.28;;;;;;;7.29;55.87;98986.94;5060988;28;20057;-70
2023/03/12 03:18:02;;;;;;;4.00;3.45;;;;;;;7.23;55.54;98980.50;5059531;28;20033;-65
2023/03/12 03:20:28;;;;;;;5.10;2.97;;;;;;;7.29;54.80;98990.41;5061010;28;20051;-65
2023/03/12 03:22:53;;;;;;;4.57;2.90;;;;;;;7.27;55.05;98994.16;5059776;28;20036;-70
2023/03/12 03:25:21;;;;;;;7.95;3.17;;;;;;;7.24;55.68;98989.22;5059301;28;20041;-65
2023/03/12 03:27:47;;;;;;;5.47;3.10;;;;;;;7.23;55.03;98996.28;5059310;28;20054;-70
2023/03/12 03:30:14;;;;;;;4.60;3.38;;;;;;;7.16;55.47;98994.44;5059746;28;20068;-65
2023/03/12 03:32:39;;;;;;;7.95;3.70;;;;;;;7.15;55.10;99003.31;5059031;28;20373;-70
2023/03/12 03:35:05;;;;;;;4.57;3.10;;;;;;;7.10;55.66;99001.16;5057496;28;20060;-70
2023/03/12 03:37:30;;;;;;;6.03;3.00;;;;;;;7.04;54.65;99005.25;5058508;28;20049;-70
2023/03/12 03:39:56;;;;;;;4.45;3.20;;;;;;;6.96;54.58;99005.22;5057666;28;20067;-70
2023/03/12 03:42:22;;;;;;;6.38;3.25;;;;;;;6.95;54.93;99013.28;5058770;28;20607;-66
2023/03/12 03:44:47;;;;;;;5.00;2.70;;;;;;;6.93;55.71;99012.59;5058412;28;20097;-65
2023/03/12 03:47:12;;;;;;;3.20;2.90;;;;;;;6.93;55.24;99015.22;5060559;28;20328;-65
2023/03/12 03:49:38;;;;;;;5.95;3.72;;;;;;;6.93;55.38;99021.31;5057518;28;20040;-64
2023/03/12 03:52:05;;;;;;;3.90;3.05;;;;;;;6.86;56.53;99027.38;5057801;28;20031;-65
2023/03/12 03:54:30;;;;;;;6.80;3.58;;;;;;;6.80;55.91;99026.19;5058590;28;20040;-65
2023/03/12 03:56:56;;;;;;;7.85;3.47;;;;;;;6.77;55.47;99025.66;5059084;28;20321;-70
2023/03/12 03:59:21;;;;;;;4.63;3.83;;;;;;;6.79;55.97;99031.59;5058950;28;20043;-70
2023/03/12 04:01:46;;;;;;;4.32;3.25;;;;;;;6.74;55.16;99034.69;5057651;28;20056;-65
2023/03/12 04:04:12;;;;;;;4.90;3.78;;;;;;;6.75;55.45;99035.53;5058803;28;20352;-65
2023/03/12 04:06:37;;;;;;;5.65;3.15;;;;;;;6.81;55.54;99048.88;5059700;28;20273;-66
2023/03/12 04:09:03;;;;;;;3.75;3.15;;;;;;;6.83;55.51;99048.72;5059709;28;20186;-65
2023/03/12 04:11:28;;;;;;;3.63;2.67;;;;;;;6.81;56.01;99054.16;5058909;28;20452;-70
2023/03/12 04:13:54;;;;;;;4.22;2.50;;;;;;;6.83;55.66;99064.53;5057494;28;20239;-70
2023/03/12 04:16:19;;;;;;;4.38;3.17;;;;;;;6.83;55.66;99067.97;5057506;28;20282;-65
2023/03/12 04:18:44;;;;;;;3.53;2.80;;;;;;;6.86;55.20;99066.84;5056416;28;20233;-65
2023/03/12 04:21:12;;;;;;;3.55;2.85;;;;;;;6.84;54.86;99067.00;5058983;28;20056;-65
2023/03/12 04:23:37;;;;;;;3.47;2.90;;;;;;;6.71;55.26;99070.03;5058058;28;20032;-66
2023/03/12 04:26:05;;;;;;;5.00;2.80;;;;;;;6.67;55.35;99073.94;5059405;28;20204;-65
2023/03/12 04:28:30;;;;;;;4.18;3.10;;;;;;;6.63;55.09;99077.88;5058658;28;20066;-69
2023/03/12 04:31:02;;;;;;;3.08;2.72;;;;;;;6.64;55.41;99078.69;5057112;28;20223;-65
2023/03/12 04:33:30;;;;;;;7.18;3.92;;;;;;;6.59;55.76;99081.78;5056958;28;20052;-65
2023/03/12 04:35:56;;;;;;;5.07;3.80;;;;;;;6.71;55.78;99079.72;5057295;28;20044;-70
2023/03/12 04:38:23;;;;;;;4.47;3.47;;;;;;;6.77;54.72;99088.81;5058261;28;20041;-70
2023/03/12 04:40:59;;;;;;;4.85;2.92;;;;;;;6.67;55.07;99096.81;5058935;28;20028;-70
2023/03/12 04:43:24;;;;;;;3.20;2.65;;;;;;;6.75;54.27;99094.22;5060747;28;20242;-70
2023/03/12 04:45:50;;;;;;;2.80;2.42;;;;;;;6.75;53.76;99101.28;5059493;28;20086;-68
2023/03/12 04:48:15;;;;;;;2.90;2.55;;;;;;;6.77;54.09;99097.53;5061051;28;20040;-70
2023/03/12 04:50:41;;;;;;;5.57;3.20;;;;;;;6.65;53.94;99099.59;5058210;28;20037;-66
2023/03/12 04:53:06;;;;;;;2.67;2.47;;;;;;;6.57;53.96;99096.88;5056656;28;20227;-70
2023/03/12 04:55:32;;;;;;;3.17;2.38;;;;;;;6.55;53.97;99112.00;5055927;28;20044;-69
2023/03/12 04:57:57;;;;;;;4.63;3.17;;;;;;;6.59;52.43;99102.81;5056526;28;20027;-65
2023/03/12 05:00:23;;;;;;;3.35;2.40;;;;;;;6.59;52.97;99110.72;5058257;28;20075;-70
2023/03/12 05:02:48;;;;;;;2.42;2.08;;;;;;;6.69;53.32;99121.16;5058668;28;20093;-65
2023/03/12 05:05:14;;;;;;;4.72;2.60;;;;;;;6.76;51.67;99122.19;5059478;28;20099;-65
2023/03/12 05:07:39;;;;;;;3.45;2.50;;;;;;;6.76;51.32;99124.00;5057852;28;20298;-69
2023/03/12 05:10:06;;;;;;;4.75;2.65;;;;;;;6.78;52.04;99136.03;5055416;28;20095;-70
2023/03/12 05:12:31;;;;;;;3.58;2.10;;;;;;;6.87;50.67;99143.00;5058247;28;20040;-70
2023/03/12 05:14:57;;;;;;;4.05;2.28;;;;;;;6.83;51.13;99139.03;5057817;28;20257;-65
2023/03/12 05:17:23;;;;;;;5.47;3.03;;;;;;;6.91;51.84;99154.06;5059025;28;20124;-70
2023/03/12 05:19:49;;;;;;;2.30;2.10;;;;;;;6.90;51.10;99155.03;5058618;28;20210;-65
2023/03/12 05:22:14;;;;;;;4.35;2.40;;;;;;;6.99;51.25;99154.94;5057606;28;20044;-70
2023/03/12 05:24:40;;;;;;;5.93;3.00;;;;;;;7.14;52.41;99162.28;5057890;28;20047;-65
2023/03/12 05:27:07;;;;;;;4.53;2.92;;;;;;;7.21;51.92;99164.13;5058556;28;20036;-64
2023/03/12 05:29:34;;;;;;;2.38;2.03;;;;;;;6.95;50.90;99164.13;5062013;28;20036;-65
2023/03/12 05:32:00;;;;;;;2.90;2.30;;;;;;;7.07;50.69;99164.69;5057279;28;20100;-70
2023/03/12 05:34:27;;;;;;;3.50;2.47;;;;;;;7.10;50.67;99169.66;5059107;28;20040;-70
2023/03/12 05:36:53;;;;;;;3.03;2.22;;;;;;;7.17;49.93;99175.97;5059862;28;20107;-70
2023/03/12 05:39:18;;;;;;;2.83;2.28;;;;;;;7.12;49.39;99178.22;5058904;28;20171;-65
2023/03/12 05:41:44;;;;;;;3.55;2.40;;;;;;;7.17;50.17;99180.41;5058453;28;20033;-66
2023/03/12 05:44:12;;;;;;;2.60;2.00;;;;;;;7.12;50.05;99164.22;5058240;28;20040;-70
2023/03/12 05:46:37;;;;;;;4.70;2.47;;;;;;;7.18;49.96;99193.41;5057656;28;20059;-70
2023/03/12 05:49:03;;;;;;;4.00;2.20;;;;;;;7.24;50.48;99194.59;5062351;28;20033;-70
2023/03/12 05:51:28;;;;;;;3.40;2.22;;;;;;;7.33;50.12;99204.25;5059882;28;20045;-65
2023/03/12 05:53:54;;;;;;;4.03;1.90;;;;;;;7.33;49.51;99194.53;5058729;28;20033;-69
2023/03/12 05:56:19;;;;;;;4.45;2.28;;;;;;;7.43;50.36;99204.13;5059302;28;20369;-69
2023/03/12 05:58:48;;;;;;;2.38;1.98;;;;;;;7.57;49.21;99199.13;5058712;28;20025;-70
2023/03/12 06:01:18;;;;;;;2.97;1.92;;;;;;;7.60;48.92;99205.88;5055800;28;20246;-70
2023/03/12 06:03:43;;;;;;;2.30;1.90;;;;;;;7.84;47.56;99208.66;5055472;28;20107;-70
2023/03/12 06:06:10;;;;;;;2.35;1.73;;;;;;;8.06;47.95;99220.44;5057799;28;20300;-65
2023/03/12 06:08:35;;;;;;;1.83;1.70;;;;;;;8.25;46.88;99230.72;5059913;28;20033;-70
2023/03/12 06:11:00;;;;;;;2.00;1.83;;;;;;;8.34;45.81;99230.81;5067415;28;20090;-65
2023/03/12 06:13:27;;;;;;;2.42;1.77;;;;;;;8.56;45.12;99223.13;5075064;28;20322;-65
2023/03/12 06:15:53;;;;;;;2.42;2.05;;;;;;;8.67;44.56;99242.28;5073864;28;20399;-66
2023/03/12 06:18:18;;;;;;;4.47;2.50;;;;;;;8.72;44.64;99226.78;5073324;28;20036;-70
2023/03/12 06:20:44;;;;;;;3.38;2.28;;;;;;;8.63;45.07;99242.59;5062327;28;20068;-70
2023/03/12 06:23:10;;;;;;;2.92;1.60;;;;;;;8.61;44.31;99236.66;5061342;28;20028;-65
2023/03/12 06:25:35;;;;;;;1.45;1.35;;;;;;;8.65;44.52;99247.72;5062559;28;20115;-66
2023/03/12 06:28:01;;;;;;;3.22;1.77;;;;;;;8.84;44.84;99250.06;5063619;28;20028;-70
2023/03/12 06:30:26;;;;;;;4.65;1.83;;;;;;;8.91;44.31;99252.88;5060524;28;20051;-65
2023/03/12 06:32:52;;;;;;;3.03;1.38;;;;;;;8.99;44.35;99258.16;5062316;28;20032;-65
2023/03/12 06:35:18;;;;;;;2.70;1.70;;;;;;;9.28;43.90;99273.53;5059748;28;20037;-70
2023/03/12 06:37:44;;;;;;;2.05;1.83;;;;;;;9.26;42.40;99268.41;5059557;28;20333;-67
2023/03/12 06:40:11;;;;;;;2.13;1.50;;;;;;;9.21;41.78;99273.38;5059250;28;20350;-65
2023/03/12 06:42:38;;;;;;;3.38;1.80;;;;;;;9.34;42.35;99283.44;5059579;28;20039;-70
2023/03/12 06:45:04;;;;;;;2.38;2.05;;;;;;;9.54;42.64;99283.97;5058780;28;20040;-67
2023/03/12 06:47:30;;;;;;;2.47;1.73;;;;;;;9.67;41.35;99278.16;5060152;28;20282;-65
2023/03/12 06:49:55;;;;;;;3.42;1.70;;;;;;;9.62;40.44;99280.47;5059030;28;20028;-69
2023/03/12 06:52:21;;;;;;;2.25;1.65;;;;;;;9.51;40.84;99287.75;5059678;28;20047;-70
2023/03/12 06:54:46;;;;;;;2.47;1.83;;;;;;;9.48;40.68;99295.19;5059078;28;20037;-65
2023/03/12 06:57:12;;;;;;;1.65;1.40;;;;;;;9.54;41.34;99291.88;5059452;28;20396;-65
2023/03/12 06:59:37;;;;;;;2.08;1.30;;;;;;;9.51;41.49;99295.69;5058634;28;20033;-70
2023/03/12 07:02:03;;;;;;;2.40;1.38;;;;;;;9.50;40.25;99267.59;5060616;28;20040;-70
2023/03/12 07:04:28;;;;;;;2.05;1.20;;;;;;;9.64;41.44;99283.78;5060207;28;20072;-66
2023/03/12 07:06:53;;;;;;;2.72;1.55;;;;;;;9.89;40.95;99270.34;5058990;28;20091;-67
2023/03/12 07:09:20;;;;;;;2.58;1.30;;;;;;;9.82;39.73;99290.53;5059376;28;20029;-65
2023/03/12 07:11:45;;;;;;;4.15;1.63;;;;;;;9.83;38.94;99291.34;5059396;28;20514;-70
2023/03/12 07:14:11;;;;;;;2.03;1.20;;;;;;;10.06;39.60;99299.41;5059980;28;20052;-69
2023/03/12 07:16:36;;;;;;;3.40;1.35;;;;;;;10.14;39.08;99300.19;5059046;28;20041;-65
2023/03/12 07:19:02;;;;;;;1.45;1.35;;;;;;;10.43;39.12;99298.84;5059636;28;20207;-66
2023/03/12 07:21:28;;;;;;;1.85;1.25;;;;;;;10.52;39.00;99295.16;5058512;28;20047;-63
2023/03/12 07:23:54;;;;;;;1.38;1.25;;;;;;;10.50;38.12;99299.81;5058612;28;20516;-67
2023/03/12 07:26:20;;;;;;;1.35;1.05;;;;;;;10.42;38.38;99297.19;5059595;28;20037;-69
2023/03/12 07:28:45;;;;;;;1.50;1.20;;;;;;;10.40;37.65;99289.41;5059131;28;20035;-69
2023/03/12 07:31:11;;;;;;;1.40;1.30;;;;;;;10.59;37.16;99306.72;5059337;28;20266;-65
2023/03/12 07:33:36;;;;;;;1.75;1.17;;;;;;;10.68;37.39;99308.31;5057228;28;20029;-69
2023/03/12 07:36:03;;;;;;;2.15;1.20;;;;;;;10.69;36.52;99309.97;5059580;28;21608;-66
2023/03/12 07:38:28;;;;;;;1.33;1.23;;;;;;;10.68;35.85;99307.50;5059931;28;20069;-69
2023/03/12 07:40:56;;;;;;;2.30;1.45;;;;;;;10.96;35.19;99315.78;5060620;28;20028;-65
2023/03/12 07:43:23;;;;;;;1.55;1.40;;;;;;;10.98;36.20;99319.06;5059685;28;20028;-69
2023/03/12 07:45:49;;;;;;;1.63;1.10;;;;;;;10.98;35.82;99332.31;5059017;28;20250;-69
2023/03/12 07:48:14;;;;;;;1.15;0.98;;;;;;;11.07;35.82;99323.31;5059818;28;20349;-69
2023/03/12 07:50:40;;;;;;;2.60;1.50;;;;;;;11.00;33.79;99330.31;5060180;28;20040;-69
2023/03/12 07:53:06;;;;;;;2.25;1.30;;;;;;;11.26;35.94;99338.75;5061359;28;20114;-69
2023/03/12 07:55:33;;;;;;;1.92;1.40;;;;;;;11.41;34.29;99330.88;5060088;28;20068;-69
2023/03/12 07:57:59;;;;;;;1.95;1.08;;;;;;;11.08;34.09;99332.94;5058796;28;20039;-65
2023/03/12 08:00:26;;;;;;;0.95;0.95;;;;;;;11.21;33.50;99338.47;5059247;28;20025;-65
2023/03/12 08:02:51;;;;;;;1.95;1.27;;;;;;;11.24;34.44;99345.25;5059446;28;20278;-65
2023/03/12 08:05:17;;;;;;;1.95;1.40;;;;;;;11.54;34.43;99351.53;5058695;28;20309;-69
2023/03/12 08:07:43;;;;;;;4.07;1.58;;;;;;;11.43;33.65;99348.25;5059617;28;20037;-70
2023/03/12 08:10:10;;;;;;;1.52;1.25;;;;;;;11.48;34.01;99337.97;5058337;28;20040;-70
2023/03/12 08:12:38;;;;;;;3.83;1.33;;;;;;;11.33;33.85;99342.34;5058698;28;20033;-69
2023/03/12 08:15:07;;;;;;;1.83;1.20;;;;;;;11.30;32.92;99334.75;5059406;28;20048;-66
2023/03/12 08:17:32;;;;;;;2.53;1.10;;;;;;;11.37;33.88;99330.41;5075094;28;20040;-70
2023/03/12 08:19:58;;;;;;;2.58;1.20;;;;;;;11.60;34.70;99332.25;5064133;28;20032;-69
2023/03/12 08:22:23;;;;;;;2.25;1.30;;;;;;;11.51;34.67;99329.66;5077747;28;20036;-69
2023/03/12 08:24:48;;;;;;;4.00;0.90;;;;;;;11.44;33.78;99326.06;5078007;28;20041;-65
2023/03/12 08:27:14;;;;;;;1.65;1.05;;;;;;;11.29;35.27;99327.00;5077272;28;20131;-69
2023/03/12 08:29:40;;;;;;;3.17;1.63;;;;;;;11.36;34.87;99323.44;5077027;28;20024;-65
2023/03/12 08:32:06;;;;;;;3.58;1.25;;;;;;;11.63;34.71;99324.75;5077262;28;20572;-69
2023/03/12 08:34:33;;;;;;;2.17;1.13;;;;;;;11.70;33.95;99332.81;5076953;28;20217;-65
2023/03/12 08:36:59;;;;;;;3.05;1.10;;;;;;;11.54;34.06;99338.25;5078221;28;20032;-65
2023/03/12 08:39:25;;;;;;;1.67;1.02;;;;;;;11.87;33.24;99350.28;5077620;28;20039;-65
2023/03/12 08:41:54;;;;;;;3.20;1.20;;;;;;;11.94;33.94;99342.41;5077165;28;20032;-69
2023/03/12 08:44:20;;;;;;;2.13;1.20;;;;;;;12.07;32.13;99339.97;5077045;28;20103;-69
2023/03/12 08:46:46;;;;;;;1.90;1.10;;;;;;;12.29;32.90;99340.88;5077621;28;20234;-65
2023/03/12 08:49:12;;;;;;;3.60;1.40;;;;;;;12.33;33.00;99348.31;5077198;28;20032;-65
2023/03/12 08:51:37;;;;;;;2.03;1.65;;;;;;;12.12;32.76;99348.19;5076333;28;20098;-69
2023/03/12 08:54:04;;;;;;;1.65;1.33;;;;;;;12.31;32.94;99360.13;5076483;28;20033;-69
2023/03/12 08:56:29;;;;;;;2.55;1.10;;;;;;;12.41;33.67;99350.03;5077022;28;20051;-69
2023/03/12 08:58:55;;;;;;;4.30;1.30;;;;;;;12.60;33.61;99349.53;5077572;28;20032;-69
2023/03/12 09:01:20;;;;;;;1.30;1.17;;;;;;;12.73;32.67;99344.38;5077227;28;20066;-69
2023/03/12 09:03:48;;;;;;;3.05;1.20;;;;;;;12.88;32.53;99346.19;5076898;28;20041;-65
2023/03/12 09:06:15;;;;;;;4.03;1.33;;;;;;;12.83;31.97;99344.09;5077623;28;20056;-65
2023/03/12 09:08:42;;;;;;;2.88;1.58;;;;;;;12.86;31.90;99342.88;5077624;28;20043;-69
2023/03/12 09:11:09;;;;;;;2.70;1.30;;;;;;;12.42;31.97;99335.75;5077805;28;20096;-65
2023/03/12 09:13:35;;;;;;;3.83;1.50;;;;;;;12.43;33.17;99335.59;5077103;28;20321;-65
2023/03/12 09:16:02;;;;;;;2.55;1.40;;;;;;;12.39;33.62;99333.47;5077317;28;20053;-69
2023/03/12 09:18:28;;;;;;;3.55;1.75;;;;;;;12.44;34.80;99339.88;5077208;28;20033;-65
2023/03/12 09:20:54;;;;;;;2.47;1.40;;;;;;;12.58;33.79;99345.41;5077716;28;20029;-66
2023/03/12 09:23:20;;;;;;;1.60;1.38;;;;;;;12.61;33.11;99345.84;5077789;28;20036;-65
2023/03/12 09:25:46;;;;;;;1.13;1.02;;;;;;;12.46;33.55;99343.19;5077171;28;20047;-65
2023/03/12 09:28:12;;;;;;;2.92;1.55;;;;;;;12.53;33.26;99335.34;5077982;28;20047;-69
2023/03/12 09:30:37;;;;;;;1.65;1.20;;;;;;;12.66;33.57;99348.78;5077208;28;20334;-65
2023/03/12 09:33:03;;;;;;;2.30;1.33;;;;;;;12.45;32.76;99357.47;5076971;28;20047;-65
2023/03/12 09:35:30;;;;;;;1.88;1.30;;;;;;;12.23;33.63;99354.91;5077444;28;20051;-69
2023/03/12 09:37:56;;;;;;;2.50;1.30;;;;;;;12.64;33.93;99357.94;5077224;28;20051;-66
2023/03/12 09:40:25;;;;;;;1.67;1.23;;;;;;;12.64;32.92;99358.75;5077603;28;20060;-65
2023/03/12 09:42:54;;;;;;;4.05;1.52;;;;;;;12.69;33.76;99364.34;5079681;28;20044;-65
2023/03/12 09:45:25;;;;;;;2.58;1.70;;;;;;;12.69;32.06;99366.19;5081188;28;20432;-64
2023/03/12 09:47:55;;;;;;;2.60;1.65;;;;;;;12.64;32.96;99369.38;5081301;28;20041;-64
2023/03/12 09:50:27;;;;;;;3.75;1.67;;;;;;;12.55;33.59;99367.00;5081231;28;20322;-68
2023/03/12 09:52:58;;;;;;;1.77;1.60;;;;;;;12.63;33.31;99362.44;5080694;28;20133;-69
2023/03/12 09:55:24;;;;;;;1.90;1.80;;;;;;;12.54;33.01;99363.53;5081361;28;20036;-69
2023/03/12 09:57:51;;;;;;;1.55;1.38;;;;;;;12.68;32.45;99383.94;5081726;28;20039;-69
2023/03/12 10:00:25;;;;;;;4.72;1.58;;;;;;;12.76;33.21;99383.84;5080433;28;20048;-69
2023/03/12 10:03:24;;;;;;;2.55;1.55;;;;;;;12.76;31.78;99381.19;5080457;28;20335;-69
2023/03/12 10:06:14;;;;;;;3.30;1.50;;;;;;;12.98;32.77;99371.44;5081051;28;20397;-65
2023/03/12 10:09:01;;;;;;;3.08;1.50;;;;;;;12.87;32.69;99376.41;5081065;28;20059;-69
2023/03/12 10:11:44;;;;;;;3.47;2.00;;;;;;;12.96;32.48;99377.97;5081744;28;20048;-65
2023/03/12 10:14:34;;;;;;;3.30;1.75;;;;;;;12.89;32.27;99374.41;5080377;28;20055;-71
2023/03/12 10:17:19;;;;;;;5.68;3.17;;;;;;;12.94;32.04;99372.00;5080755;28;20049;-70
2023/03/12 10:20:22;;;;;;;5.82;3.90;;;;;;;12.92;32.49;99380.16;5080895;28;20047;-69
2023/03/12 10:23:00;;;;;;;3.15;2.85;;;;;;;12.96;31.55;99370.81;5070802;28;20052;-65
2023/03/12 10:25:43;;;;;;;3.47;2.50;;;;;;;12.93;32.13;99386.31;5080887;28;20035;-66
2023/03/12 10:28:17;;;;;;;3.15;2.85;;;;;;;12.88;31.52;99376.22;5081025;28;20052;-65
2023/03/12 10:30:49;;;;;;;2.28;1.48;;;;;;;12.79;31.42;99380.00;5080051;28;20041;-65
2023/03/12 10:33:17;;;;;;;3.05;2.70;;;;;;;12.70;33.96;99389.91;5080676;28;20353;-70
2023/03/12 10:35:43;;;;;;;3.50;2.83;;;;;;;12.99;34.70;99374.94;5080906;28;20260;-69
2023/03/12 10:38:29;;;;;;;3.58;2.60;;;;;;;12.87;33.05;99382.56;5080753;28;20029;-70
2023/03/12 10:40:55;;;;;;;3.65;2.25;;;;;;;12.82;32.78;99384.13;5080552;28;20354;-67
2023/03/12 10:43:20;;;;;;;1.42;1.33;;;;;;;12.89;31.81;99385.84;5080990;28;20055;-66
2023/03/12 10:46:40;;;;;;;4.13;3.40;;;;;;;12.83;31.35;99389.25;5080045;28;20297;-65
2023/03/12 10:49:20;;;;;;;2.40;1.45;;;;;;;12.83;32.34;99386.59;5057655;28;20267;-65
2023/03/12 10:51:55;;;;;;;3.40;1.60;;;;;;;12.83;32.25;99385.78;5057147;28;20041;-64
2023/03/12 10:54:43;;;;;;;2.45;1.85;;;;;;;13.01;32.69;99387.03;5061700;28;20047;-69
2023/03/12 10:57:10;;;;;;;4.82;1.67;;;;;;;12.97;32.21;99390.25;5080142;28;20333;-65
2023/03/12 10:59:44;;;;;;;3.08;1.70;;;;;;;12.70;33.02;99387.25;5066451;28;20098;-69
2023/03/12 11:02:42;;;;;;;1.70;1.48;;;;;;;12.67;31.35;99389.44;5079522;28;20041;-70
2023/03/12 11:05:21;;;;;;;2.20;1.63;;;;;;;12.42;31.13;99387.03;5069981;28;20100;-69
2023/03/12 11:07:47;;;;;;;1.20;1.10;;;;;;;12.46;31.51;99387.50;5079854;28;20044;-65
2023/03/12 11:10:15;;;;;;;1.52;1.30;;;;;;;12.83;31.82;99378.63;5080678;28;20040;-68
2023/03/12 11:12:52;;;;;;;1.95;1.20;;;;;;;12.79;30.92;99370.19;5080187;28;20222;-70
2023/03/12 11:15:20;;;;;;;2.17;1.27;;;;;;;12.88;30.54;99380.72;5078986;28;20048;-65
2023/03/12 11:17:45;;;;;;;1.73;1.25;;;;;;;12.78;30.99;99368.56;5066525;28;20086;-65
2023/03/12 11:20:20;;;;;;;2.67;1.70;;;;;;;12.90;31.16;99370.72;5079264;28;20310;-69
2023/03/12 11:22:46;;;;;;;4.75;2.75;;;;;;;12.85;31.55;99381.91;5079815;28;20432;-69
2023/03/12 11:25:24;;;;;;;7.22;2.38;;;;;;;12.64;31.63;99377.34;5078967;28;20314;-70
2023/03/12 11:27:53;;;;;;;1.70;1.20;;;;;;;12.65;29.95;99378.19;5079474;28;20033;-66
2023/03/12 11:30:39;;;;;;;2.67;1.40;;;;;;;12.89;31.66;99377.06;5079427;28;20033;-66
2023/03/12 11:33:05;;;;;;;1.30;1.20;;;;;;;12.97;30.62;99379.59;5079476;28;20055;-66
2023/03/12 11:35:48;;;;;;;1.92;1.20;;;;;;;13.00;30.74;99376.56;5079182;28;20036;-69
2023/03/12 11:38:20;;;;;;;2.25;1.80;;;;;;;12.95;31.72;99374.47;5079432;28;20104;-65
2023/03/12 11:41:15;;;;;;;3.72;1.30;;;;;;;12.97;31.76;99369.81;5079681;28;20056;-70
2023/03/12 11:44:14;;;;;;;2.15;1.95;;;;;;;12.97;31.84;99367.16;5079912;28;20278;-65